Phelps, Kentucky
Current Conditions -  °F | °C
As of 4:35 AM on Monday 24 Nov 2014 (Local Time) from KPBX Reporting Station
Scattered Clouds Scattered Clouds  
Wind Chill: 62°   Ceiling: Unl
Heat Index: 62°   Visibility: 10mi
Dew Point: 51°   Wind: 8mph
Humidity: 67%   Direction: 190°S
Pressure: 29.53"   Gusts: 20mph
Location:  37.51°N, 82.16°W
Report Text: KPBX 240935Z AUTO 19007G17KT 130V250 10SM SCT060 17/11 A2953 RMK AO2 T01660105
Loading
Personal Weather Stations






























Interactive Weather Map New forecast layout! Learn more

10-Day Weather Forecast

Advertisements
Track Severe Weather on mobile